createdAt,value
2023-05-03T00:00:10.363Z,9.07
2023-05-03T00:02:44.546Z,8.73
2023-05-03T00:05:12.981Z,9.73
2023-05-03T00:07:42.401Z,9.75
2023-05-03T00:10:12.784Z,8.93
2023-05-03T00:12:40.698Z,8.40
2023-05-03T00:15:08.977Z,8.38
2023-05-03T00:17:37.074Z,10.15
2023-05-03T00:20:05.107Z,10.95
2023-05-03T00:22:32.856Z,10.13
2023-05-03T00:25:00.354Z,9.02
2023-05-03T00:27:28.126Z,8.63
2023-05-03T00:29:55.976Z,8.95
2023-05-03T00:32:23.504Z,10.40
2023-05-03T00:34:57.304Z,9.30
2023-05-03T00:37:25.082Z,9.40
2023-05-03T00:39:52.717Z,9.20
2023-05-03T00:42:20.057Z,9.52
2023-05-03T00:44:47.778Z,9.52
2023-05-03T00:47:15.804Z,10.13
2023-05-03T00:49:43.180Z,9.82
2023-05-03T00:52:10.832Z,9.82
2023-05-03T00:54:38.237Z,9.25
2023-05-03T00:57:05.854Z,9.60
2023-05-03T00:59:34.581Z,10.00
2023-05-03T01:02:02.119Z,9.80
2023-05-03T01:04:29.638Z,10.90
2023-05-03T01:07:18.781Z,10.98
2023-05-03T01:10:21.727Z,10.75
2023-05-03T01:13:11.038Z,10.35
2023-05-03T01:15:46.365Z,9.88
2023-05-03T01:18:16.594Z,10.50
2023-05-03T01:20:46.218Z,9.60
2023-05-03T01:23:18.719Z,10.25
2023-05-03T01:25:46.115Z,10.07
2023-05-03T01:28:13.761Z,9.80
2023-05-03T01:30:41.869Z,9.65
2023-05-03T01:33:24.499Z,10.02
2023-05-03T01:35:55.050Z,9.82
2023-05-03T01:38:22.412Z,10.13
2023-05-03T01:40:52.685Z,10.25
2023-05-03T01:43:20.734Z,9.15
2023-05-03T01:45:48.185Z,9.32
2023-05-03T01:48:16.922Z,10.25
2023-05-03T01:50:44.760Z,9.82
2023-05-03T01:53:12.230Z,10.40
2023-05-03T01:55:39.933Z,9.57
2023-05-03T01:58:07.562Z,9.60
2023-05-03T02:00:34.924Z,9.77
2023-05-03T02:03:02.609Z,9.95
2023-05-03T02:05:30.024Z,9.77
2023-05-03T02:07:57.360Z,10.15
2023-05-03T02:10:25.389Z,9.60
2023-05-03T02:12:56.001Z,9.20
2023-05-03T02:15:23.354Z,8.88
2023-05-03T02:17:51.249Z,9.77
2023-05-03T02:20:18.729Z,9.98
2023-05-03T02:22:46.114Z,10.00
2023-05-03T02:25:13.722Z,10.70
2023-05-03T02:27:41.395Z,10.50
2023-05-03T02:30:09.090Z,9.50
2023-05-03T02:32:38.170Z,10.13
2023-05-03T02:35:06.573Z,9.43
2023-05-03T02:37:34.026Z,9.82
2023-05-03T02:40:02.879Z,10.10
2023-05-03T02:42:30.837Z,9.50
2023-05-03T02:44:58.346Z,9.55
2023-05-03T02:47:26.466Z,10.63
2023-05-03T02:49:53.952Z,9.77
2023-05-03T02:52:21.278Z,10.23
2023-05-03T02:54:49.643Z,10.32
2023-05-03T02:57:17.519Z,9.77
2023-05-03T02:59:44.867Z,9.77
2023-05-03T03:02:12.538Z,10.70
2023-05-03T03:04:39.869Z,10.20
2023-05-03T03:07:07.304Z,10.85
2023-05-03T03:09:36.019Z,10.45
2023-05-03T03:12:03.827Z,10.93
2023-05-03T03:14:32.755Z,9.13
2023-05-03T03:17:01.106Z,9.68
2023-05-03T03:19:28.797Z,10.18
2023-05-03T03:21:56.291Z,10.15
2023-05-03T03:24:25.250Z,10.55
2023-05-03T03:26:53.518Z,11.40
2023-05-03T03:29:20.910Z,12.15
2023-05-03T03:31:48.896Z,12.25
2023-05-03T03:34:16.724Z,11.23
2023-05-03T03:36:44.161Z,11.12
2023-05-03T03:39:11.863Z,10.50
2023-05-03T03:41:39.449Z,10.75
2023-05-03T03:44:07.095Z,9.52
2023-05-03T03:46:34.887Z,11.07
2023-05-03T03:49:02.361Z,10.50
2023-05-03T03:51:31.238Z,11.15
2023-05-03T03:53:59.168Z,10.63
2023-05-03T03:56:27.528Z,11.38
2023-05-03T03:58:56.398Z,10.50
2023-05-03T04:01:25.069Z,11.05
2023-05-03T04:03:53.186Z,11.85
2023-05-03T04:06:20.983Z,11.38
2023-05-03T04:08:49.450Z,11.68
2023-05-03T04:11:17.611Z,11.12
2023-05-03T04:13:45.199Z,11.18
2023-05-03T04:16:12.587Z,10.52
2023-05-03T04:18:41.311Z,10.40
2023-05-03T04:21:08.982Z,9.70
2023-05-03T04:23:36.342Z,9.00
2023-05-03T04:26:05.251Z,8.30
2023-05-03T04:28:34.013Z,9.25
2023-05-03T04:31:01.426Z,9.25
2023-05-03T04:33:31.131Z,8.88
2023-05-03T04:36:00.368Z,8.65
2023-05-03T04:38:28.237Z,9.82
2023-05-03T04:40:58.306Z,8.82
2023-05-03T04:43:26.189Z,10.88
2023-05-03T04:45:54.537Z,9.50
2023-05-03T04:48:22.307Z,10.00
2023-05-03T04:50:49.754Z,9.75
2023-05-03T04:53:17.820Z,10.07
2023-05-03T04:55:47.498Z,10.43
2023-05-03T04:58:14.935Z,10.27
2023-05-03T05:00:42.863Z,10.93
2023-05-03T05:03:11.819Z,10.27
2023-05-03T05:05:39.802Z,10.32
2023-05-03T05:08:07.624Z,9.05
2023-05-03T05:10:41.015Z,8.80
2023-05-03T05:13:09.104Z,9.68
2023-05-03T05:15:37.449Z,9.27
2023-05-03T05:18:05.174Z,8.40
2023-05-03T05:20:32.894Z,9.50
2023-05-03T05:23:01.616Z,8.45
2023-05-03T05:25:29.310Z,9.18
2023-05-03T05:27:57.365Z,9.25
2023-05-03T05:30:25.730Z,8.93
2023-05-03T05:32:53.410Z,7.50
2023-05-03T05:35:21.053Z,7.87
2023-05-03T05:37:48.805Z,7.85
2023-05-03T05:40:16.391Z,7.85
2023-05-03T05:42:46.228Z,7.55
2023-05-03T05:45:14.014Z,7.37
2023-05-03T05:47:41.860Z,7.28
2023-05-03T05:50:15.274Z,6.43
2023-05-03T05:52:46.214Z,6.82
2023-05-03T05:55:15.800Z,7.55
2023-05-03T05:57:44.208Z,7.15
2023-05-03T06:00:15.565Z,6.35
2023-05-03T06:02:44.698Z,6.25
2023-05-03T06:05:12.453Z,7.25
2023-05-03T06:07:40.672Z,6.80
2023-05-03T06:10:08.542Z,6.90
2023-05-03T06:12:36.961Z,7.22
2023-05-03T06:15:07.006Z,6.05
2023-05-03T06:17:36.080Z,5.53
2023-05-03T06:20:04.914Z,6.05
2023-05-03T06:22:32.643Z,6.68
2023-05-03T06:25:00.392Z,6.80
2023-05-03T06:27:28.076Z,6.25
2023-05-03T06:29:56.123Z,5.90
2023-05-03T06:32:23.956Z,6.18
2023-05-03T06:34:52.948Z,5.95
2023-05-03T06:37:20.463Z,5.32
2023-05-03T06:39:49.787Z,7.15
2023-05-03T06:42:19.800Z,6.53
2023-05-03T06:44:48.250Z,6.18
2023-05-03T06:47:15.975Z,6.50
2023-05-03T06:49:43.358Z,7.12
2023-05-03T06:52:11.900Z,7.18
2023-05-03T06:54:40.420Z,5.90
2023-05-03T06:57:07.792Z,7.45
2023-05-03T06:59:35.155Z,7.10
2023-05-03T07:02:02.920Z,6.47
2023-05-03T07:04:30.409Z,7.18
2023-05-03T07:06:57.825Z,6.85
2023-05-03T07:09:35.433Z,7.50
2023-05-03T07:12:10.031Z,6.70
2023-05-03T07:14:38.969Z,7.25
2023-05-03T07:17:06.353Z,7.12
2023-05-03T07:19:33.701Z,6.22
2023-05-03T07:22:03.344Z,6.72
2023-05-03T07:24:30.734Z,6.65
2023-05-03T07:26:58.402Z,6.45
2023-05-03T07:29:27.317Z,6.72
2023-05-03T07:31:54.911Z,6.95
2023-05-03T07:34:22.331Z,6.55
2023-05-03T07:36:50.004Z,6.47
2023-05-03T07:39:17.535Z,6.43
2023-05-03T07:41:45.014Z,6.47
2023-05-03T07:44:12.808Z,6.47
2023-05-03T07:46:40.504Z,6.85
2023-05-03T07:49:07.919Z,8.05
2023-05-03T07:51:36.327Z,8.13
2023-05-03T07:54:04.296Z,8.32
2023-05-03T07:56:31.687Z,8.65
2023-05-03T07:59:08.607Z,8.77
2023-05-03T08:01:38.052Z,9.35
2023-05-03T08:04:06.007Z,9.70
2023-05-03T08:06:35.590Z,9.68
2023-05-03T08:09:04.704Z,9.63
2023-05-03T08:11:32.691Z,9.10
2023-05-03T08:14:00.053Z,10.35
2023-05-03T08:16:27.755Z,9.95
2023-05-03T08:18:55.435Z,9.52
2023-05-03T08:21:24.847Z,8.70
2023-05-03T08:23:52.277Z,8.90
2023-05-03T08:26:22.142Z,8.63
2023-05-03T08:28:49.828Z,8.40
2023-05-03T08:31:17.694Z,9.35
2023-05-03T08:33:45.708Z,9.38
2023-05-03T08:36:13.089Z,9.32
2023-05-03T08:38:43.490Z,10.35
2023-05-03T08:41:42.965Z,9.38
2023-05-03T08:44:12.267Z,10.57
2023-05-03T08:46:40.447Z,9.60
2023-05-03T08:49:07.876Z,9.30
2023-05-03T08:51:36.068Z,9.45
2023-05-03T08:54:03.859Z,9.63
2023-05-03T08:56:39.477Z,9.18
2023-05-03T08:59:10.290Z,10.45
2023-05-03T09:01:38.323Z,9.50
2023-05-03T09:04:06.332Z,9.75
2023-05-03T09:06:34.403Z,8.43
2023-05-03T09:09:02.141Z,8.90
2023-05-03T09:11:30.839Z,8.63
2023-05-03T09:14:13.339Z,8.77
2023-05-03T09:16:41.603Z,8.00
2023-05-03T09:19:11.583Z,8.98
2023-05-03T09:21:43.458Z,9.55
2023-05-03T09:24:21.088Z,9.60
2023-05-03T09:26:50.521Z,8.63
2023-05-03T09:29:31.576Z,8.68
2023-05-03T09:32:00.609Z,9.15
2023-05-03T09:34:28.287Z,8.40
2023-05-03T09:36:56.324Z,7.57
2023-05-03T09:39:23.684Z,7.32
2023-05-03T09:41:51.327Z,7.82
2023-05-03T09:44:18.709Z,7.93
2023-05-03T09:47:05.468Z,7.10
2023-05-03T09:49:33.222Z,7.60
2023-05-03T09:52:03.491Z,7.40
2023-05-03T09:54:35.435Z,8.18
2023-05-03T09:57:04.958Z,8.02
2023-05-03T09:59:33.293Z,8.13
2023-05-03T10:02:03.145Z,8.50
2023-05-03T10:04:44.272Z,8.80
2023-05-03T10:07:13.481Z,8.27
2023-05-03T10:09:45.469Z,8.10
2023-05-03T10:12:13.256Z,8.23
2023-05-03T10:14:42.083Z,8.43
2023-05-03T10:17:17.008Z,8.50
2023-05-03T10:19:51.799Z,9.10
2023-05-03T10:22:19.216Z,8.90
2023-05-03T10:25:02.605Z,8.13
2023-05-03T10:27:44.178Z,7.47
2023-05-03T10:30:34.651Z,8.25
2023-05-03T10:33:14.479Z,8.10
2023-05-03T10:35:43.769Z,7.68
2023-05-03T10:38:22.431Z,8.68
2023-05-03T10:40:50.252Z,7.72
2023-05-03T10:43:29.949Z,7.75
2023-05-03T10:46:00.963Z,7.70
2023-05-03T10:48:28.755Z,7.28
2023-05-03T10:50:56.563Z,7.62
2023-05-03T10:53:44.993Z,7.90
2023-05-03T10:56:13.666Z,7.93
2023-05-03T10:58:43.743Z,7.65
2023-05-03T11:01:15.279Z,8.48
2023-05-03T11:03:48.886Z,7.65
2023-05-03T11:06:41.269Z,7.50
2023-05-03T11:09:09.825Z,7.28
2023-05-03T11:11:39.262Z,8.38
2023-05-03T11:14:08.229Z,6.53
2023-05-03T11:16:36.741Z,7.25
2023-05-03T11:19:04.191Z,6.90
2023-05-03T11:21:32.057Z,6.85
2023-05-03T11:23:59.807Z,7.30
2023-05-03T11:26:27.598Z,7.37
2023-05-03T11:28:55.013Z,7.37
2023-05-03T11:31:23.025Z,7.87
2023-05-03T11:33:51.072Z,7.32
2023-05-03T11:36:18.480Z,7.32
2023-05-03T11:38:46.276Z,7.57
2023-05-03T11:41:14.903Z,7.50
2023-05-03T11:43:43.571Z,7.20
2023-05-03T11:46:11.332Z,6.97
2023-05-03T11:48:39.294Z,7.47
2023-05-03T11:51:07.967Z,6.82
2023-05-03T11:53:36.362Z,7.68
2023-05-03T11:56:03.799Z,6.68
2023-05-03T11:58:32.090Z,7.85
2023-05-03T12:00:59.754Z,6.70
2023-05-03T12:03:37.103Z,7.30
2023-05-03T12:06:06.448Z,6.78
2023-05-03T12:08:37.073Z,7.20
2023-05-03T12:11:06.973Z,6.75
2023-05-03T12:13:38.748Z,7.20
2023-05-03T12:16:11.849Z,7.30
2023-05-03T12:18:56.675Z,6.53
2023-05-03T12:23:57.247Z,6.47
2023-05-03T12:26:26.369Z,6.85
2023-05-03T12:28:56.001Z,5.95
2023-05-03T12:31:24.695Z,6.72
2023-05-03T12:36:26.109Z,6.25
2023-05-03T12:38:56.604Z,5.47
2023-05-03T12:42:04.604Z,5.37
2023-05-03T12:44:17.036Z,5.55
2023-05-03T12:46:45.726Z,5.85
2023-05-03T12:49:15.021Z,5.50
2023-05-03T12:51:43.579Z,5.62
2023-05-03T12:54:12.335Z,5.53
2023-05-03T12:56:41.161Z,5.53
2023-05-03T13:06:46.993Z,4.68
2023-05-03T13:09:20.853Z,4.95
2023-05-03T13:11:50.385Z,5.05
2023-05-03T13:14:21.339Z,4.90
2023-05-03T13:16:49.550Z,4.70
2023-05-03T13:19:17.022Z,4.72
2023-05-03T13:21:44.400Z,5.05
2023-05-03T13:24:12.295Z,4.95
2023-05-03T13:26:39.667Z,5.25
2023-05-03T13:29:07.398Z,5.12
2023-05-03T13:31:35.387Z,4.40
2023-05-03T13:34:02.782Z,4.78
2023-05-03T13:36:30.666Z,4.10
2023-05-03T13:38:59.060Z,4.55
2023-05-03T13:41:26.478Z,4.70
2023-05-03T13:43:53.866Z,4.72
2023-05-03T13:46:21.550Z,4.43
2023-05-03T13:48:49.165Z,4.57
2023-05-03T13:51:16.572Z,4.43
2023-05-03T13:53:44.714Z,5.12
2023-05-03T13:56:12.084Z,4.37
2023-05-03T13:58:39.885Z,4.22
2023-05-03T14:01:08.093Z,4.68
2023-05-03T14:03:35.885Z,4.43
2023-05-03T14:06:03.514Z,5.03
2023-05-03T14:08:30.977Z,4.82
2023-05-03T14:10:58.668Z,5.20
2023-05-03T14:13:27.144Z,5.15
2023-05-03T14:15:55.177Z,4.45
2023-05-03T14:18:22.936Z,5.10
2023-05-03T14:20:50.974Z,4.72
2023-05-03T14:23:18.423Z,4.57
2023-05-03T14:25:46.034Z,5.82
2023-05-03T14:28:13.366Z,4.47
2023-05-03T14:30:40.815Z,5.00
2023-05-03T14:33:10.693Z,4.47
2023-05-03T14:35:38.176Z,5.37
2023-05-03T14:38:06.399Z,4.82
2023-05-03T14:40:34.059Z,5.62
2023-05-03T14:43:01.417Z,5.05
2023-05-03T14:45:28.878Z,5.07
2023-05-03T14:47:56.605Z,4.87
2023-05-03T14:50:23.968Z,5.60
2023-05-03T14:52:51.689Z,4.60
2023-05-03T14:55:19.434Z,4.68
2023-05-03T14:57:47.408Z,4.87
2023-05-03T15:00:17.665Z,4.75
2023-05-03T15:02:45.785Z,5.05
2023-05-03T15:05:13.413Z,4.82
2023-05-03T15:07:40.803Z,4.75
2023-05-03T15:10:08.972Z,5.47
2023-05-03T15:12:36.642Z,4.85
2023-05-03T15:15:05.048Z,5.93
2023-05-03T15:17:32.740Z,4.90
2023-05-03T15:20:00.123Z,5.18
2023-05-03T15:22:27.555Z,4.93
2023-05-03T15:24:55.448Z,4.47
2023-05-03T15:27:22.831Z,5.32
2023-05-03T15:29:50.197Z,5.32
2023-05-03T15:32:17.832Z,5.00
2023-05-03T15:34:45.205Z,5.45
2023-05-03T15:37:13.079Z,5.28
2023-05-03T15:39:40.790Z,5.03
2023-05-03T15:42:08.513Z,5.50
2023-05-03T15:44:36.014Z,5.85
2023-05-03T15:47:03.630Z,4.93
2023-05-03T15:49:31.013Z,5.43
2023-05-03T15:51:58.365Z,5.25
2023-05-03T15:54:26.013Z,4.45
2023-05-03T15:56:53.800Z,4.93
2023-05-03T15:59:21.311Z,5.10
2023-05-03T16:01:49.237Z,5.50
2023-05-03T16:04:17.152Z,5.20
2023-05-03T16:06:44.630Z,5.62
2023-05-03T16:09:12.783Z,5.87
2023-05-03T16:11:40.460Z,6.60
2023-05-03T16:14:09.597Z,6.12
2023-05-03T16:16:38.740Z,6.28
2023-05-03T16:19:07.167Z,6.85
2023-05-03T16:21:34.499Z,6.45
2023-05-03T16:24:01.944Z,6.87
2023-05-03T16:26:29.642Z,7.20
2023-05-03T16:28:57.099Z,7.43
2023-05-03T16:31:24.450Z,8.75
2023-05-03T16:33:52.222Z,7.40
2023-05-03T16:36:19.813Z,7.82
2023-05-03T16:38:47.145Z,9.40
2023-05-03T16:41:14.967Z,7.68
2023-05-03T16:43:42.301Z,7.90
2023-05-03T16:46:09.745Z,7.82
2023-05-03T16:48:37.386Z,7.70
2023-05-03T16:51:04.846Z,8.27
2023-05-03T16:53:32.677Z,8.52
2023-05-03T16:56:00.995Z,7.82
2023-05-03T16:58:28.492Z,7.72
2023-05-03T17:00:56.184Z,9.55
2023-05-03T17:03:24.215Z,8.38
2023-05-03T17:05:52.127Z,8.32
2023-05-03T17:08:19.515Z,8.90
2023-05-03T17:10:47.140Z,7.60
2023-05-03T17:13:15.019Z,7.97
2023-05-03T17:15:42.596Z,7.82
2023-05-03T17:18:10.389Z,7.65
2023-05-03T17:20:39.036Z,7.60
2023-05-03T17:23:06.383Z,8.27
2023-05-03T17:25:34.171Z,8.65
2023-05-03T17:28:01.603Z,7.93
2023-05-03T17:30:29.207Z,8.60
2023-05-03T17:32:57.062Z,7.78
2023-05-03T17:35:24.470Z,7.37
2023-05-03T17:37:51.865Z,7.75
2023-05-03T17:40:19.489Z,6.75
2023-05-03T17:42:47.132Z,8.45
2023-05-03T17:45:14.707Z,8.25
2023-05-03T17:47:42.444Z,7.37
2023-05-03T17:50:11.685Z,7.80
2023-05-03T17:52:39.876Z,7.85
2023-05-03T17:55:08.205Z,7.25
2023-05-03T17:57:37.379Z,7.97
2023-05-03T18:00:06.094Z,7.57
2023-05-03T18:02:34.357Z,7.62
2023-05-03T18:05:02.244Z,8.02
2023-05-03T18:07:29.578Z,8.20
2023-05-03T18:09:57.367Z,7.62
2023-05-03T18:12:24.699Z,7.82
2023-05-03T18:14:59.291Z,7.03
2023-05-03T18:17:27.458Z,6.62
2023-05-03T18:19:55.638Z,7.40
2023-05-03T18:22:23.369Z,7.97
2023-05-03T18:24:54.588Z,8.00
2023-05-03T18:27:22.671Z,7.43
2023-05-03T18:29:50.067Z,7.43
2023-05-03T18:32:17.752Z,8.32
2023-05-03T18:34:45.091Z,6.72
2023-05-03T18:37:14.794Z,7.40
2023-05-03T18:39:42.786Z,6.90
2023-05-03T18:42:10.598Z,7.15
2023-05-03T18:44:39.642Z,8.45
2023-05-03T18:47:09.464Z,7.55
2023-05-03T18:49:37.006Z,7.90
2023-05-03T18:52:05.402Z,8.20
2023-05-03T18:54:33.041Z,7.75
2023-05-03T18:57:01.803Z,7.32
2023-05-03T18:59:29.582Z,7.70
2023-05-03T19:01:57.181Z,7.87
2023-05-03T19:04:24.652Z,7.80
2023-05-03T19:06:52.126Z,7.80
2023-05-03T19:09:20.023Z,7.72
2023-05-03T19:11:49.082Z,6.95
2023-05-03T19:14:16.513Z,7.05
2023-05-03T19:16:44.231Z,7.18
2023-05-03T19:19:13.565Z,6.40
2023-05-03T19:21:42.400Z,6.12
2023-05-03T19:24:14.987Z,6.47
2023-05-03T19:26:42.564Z,6.75
2023-05-03T19:29:10.272Z,6.60
2023-05-03T19:31:37.685Z,8.18
2023-05-03T19:34:05.113Z,6.60
2023-05-03T19:36:32.847Z,6.75
2023-05-03T19:39:00.318Z,5.78
2023-05-03T19:41:27.722Z,6.47
2023-05-03T19:43:55.739Z,6.20
2023-05-03T19:46:23.191Z,6.55
2023-05-03T19:48:50.614Z,6.55
2023-05-03T19:51:18.320Z,6.80
2023-05-03T19:53:48.046Z,6.50
2023-05-03T19:56:16.300Z,5.87
2023-05-03T19:58:43.912Z,6.00
2023-05-03T20:01:11.340Z,5.87
2023-05-03T20:03:39.295Z,6.15
2023-05-03T20:06:06.710Z,5.40
2023-05-03T20:08:35.994Z,6.28
2023-05-03T20:11:03.833Z,6.12
2023-05-03T20:13:31.251Z,6.03
2023-05-03T20:15:58.641Z,5.12
2023-05-03T20:18:26.255Z,5.95
2023-05-03T20:20:53.748Z,6.20
2023-05-03T20:23:21.480Z,5.45
2023-05-03T20:25:49.422Z,5.22
2023-05-03T20:28:16.812Z,5.40
2023-05-03T20:30:44.215Z,5.72
2023-05-03T20:33:12.361Z,5.35
2023-05-03T20:35:39.800Z,6.90
2023-05-03T20:38:07.162Z,5.20
2023-05-03T20:40:34.898Z,5.03
2023-05-03T20:43:02.316Z,6.18
2023-05-03T20:45:29.934Z,5.80
2023-05-03T20:47:57.633Z,6.03
2023-05-03T20:50:25.030Z,5.78
2023-05-03T20:52:52.417Z,5.35
2023-05-03T20:55:20.187Z,4.80
2023-05-03T20:57:47.570Z,5.75
2023-05-03T21:00:18.047Z,5.87
2023-05-03T21:02:46.453Z,5.82
2023-05-03T21:05:13.937Z,6.18
2023-05-03T21:07:41.786Z,5.80
2023-05-03T21:10:09.849Z,6.30
2023-05-03T21:12:37.246Z,5.97
2023-05-03T21:15:05.065Z,5.57
2023-05-03T21:17:32.935Z,6.03
2023-05-03T21:20:00.259Z,5.90
2023-05-03T21:22:27.646Z,5.45
2023-05-03T21:24:55.262Z,5.50
2023-05-03T21:27:22.640Z,5.45
2023-05-03T21:29:50.025Z,5.45
2023-05-03T21:32:17.694Z,5.55
2023-05-03T21:34:45.010Z,6.25
2023-05-03T21:37:12.390Z,5.30
2023-05-03T21:39:40.064Z,5.78
2023-05-03T21:42:07.502Z,5.15
2023-05-03T21:44:35.181Z,5.82
2023-05-03T21:47:03.125Z,5.97
2023-05-03T21:49:30.649Z,5.75
2023-05-03T21:51:58.197Z,5.60
2023-05-03T21:54:26.895Z,5.50
2023-05-03T21:56:54.223Z,5.80
2023-05-03T21:59:21.643Z,5.68
2023-05-03T22:01:49.320Z,5.70
2023-05-03T22:04:16.941Z,5.35
2023-05-03T22:06:44.454Z,5.40
2023-05-03T22:09:11.823Z,5.62
2023-05-03T22:11:39.484Z,6.05
2023-05-03T22:14:08.351Z,6.22
2023-05-03T22:16:37.688Z,5.75
2023-05-03T22:19:05.453Z,6.28
2023-05-03T22:21:32.874Z,5.50
2023-05-03T22:24:00.194Z,5.87
2023-05-03T22:26:27.837Z,6.05
2023-05-03T22:28:55.260Z,5.43
2023-05-03T22:31:22.645Z,6.05
2023-05-03T22:33:50.286Z,6.00
2023-05-03T22:36:17.674Z,6.00
2023-05-03T22:38:45.057Z,5.15
2023-05-03T22:41:12.705Z,5.55
2023-05-03T22:43:40.098Z,6.28
2023-05-03T22:46:07.813Z,6.40
2023-05-03T22:48:35.546Z,6.28
2023-05-03T22:51:02.920Z,6.55
2023-05-03T22:53:30.360Z,6.10
2023-05-03T22:55:58.733Z,5.55
2023-05-03T22:58:26.167Z,5.80
2023-05-03T23:00:53.857Z,6.15
2023-05-03T23:03:22.382Z,6.78
2023-05-03T23:05:51.543Z,5.87
2023-05-03T23:08:18.953Z,6.50
2023-05-03T23:10:46.581Z,6.22
2023-05-03T23:13:13.970Z,7.00
2023-05-03T23:15:41.583Z,8.27
2023-05-03T23:18:09.406Z,6.97
2023-05-03T23:20:37.671Z,7.65
2023-05-03T23:23:05.040Z,7.87
2023-05-03T23:25:32.692Z,8.20
2023-05-03T23:28:00.090Z,8.07
2023-05-03T23:30:28.151Z,8.05
2023-05-03T23:32:56.309Z,10.05
2023-05-03T23:35:24.138Z,9.68
2023-05-03T23:37:51.528Z,9.75
2023-05-03T23:40:19.329Z,9.98
2023-05-03T23:42:46.748Z,8.75
2023-05-03T23:45:14.095Z,9.70
2023-05-03T23:47:41.737Z,9.88
2023-05-03T23:50:09.502Z,9.30
2023-05-03T23:52:37.092Z,9.15
2023-05-03T23:55:05.597Z,9.77
2023-05-03T23:57:32.948Z,9.63
